Los Posos, Valles Caldera, New Mexico Weather observations

Data are for 10 minute period ending at time listed.
 Day   Time   Solar   Ave.   Ave.  Ave.  Vector  Max.   Baro.   Total    
  of    of     Rad.   Air    Rel.  Wind   Wind   Wind  Press.  Precip.   
Year   Day            Temp.  Hum.  Speed  Dir.   Gust                    
2017   (MST)  Kw/m2    F      %     mph   deg.    mph    mb.     in.     
-------------------------------------------------------------------------
  84    1:30   0.00   19.5    90    1.9    69     4.2   99999.0    0.00 
  84    1:40   0.00   19.7    88    0.6   237     3.0   99999.0    0.00 
  84    1:50   0.00   18.8    89    1.0   240     3.0   99999.0    0.00 
  84    2:00   0.00   18.4    92    2.0   235     4.2   99999.0    0.00 
  84    2:10   0.00   19.1    92    1.3   235     4.2   99999.0    0.00 
  84    2:20   0.00   18.4    90    0.7   331     3.6   99999.0    0.00 
  84    2:30   0.00   17.6    90    0.3   286     1.8   99999.0    0.00 
  84    2:40   0.00   18.0    92    0.4   291     2.4   99999.0    0.00 
  84    2:50   0.00   17.3    91    1.8   308     3.6   99999.0    0.00 
  84    3:00   0.00   17.5    92    1.2   255     3.0   99999.0    0.00 
  84    3:10   0.00   18.3    93    0.2   255     2.4   99999.0    0.00 
  84    3:20   0.00   17.6    92    1.3   292     3.0   99999.0    0.00 
  84    3:30   0.00   17.1    92    1.6   305     3.0   99999.0    0.00 
  84    3:40   0.00   16.9    91    2.1   253     4.2   99999.0    0.00 
  84    3:50   0.00   16.6    91    0.6   229     1.8   99999.0    0.00 
  84    4:00   0.00   17.4    93    0.1   207     1.2   99999.0    0.00 
  84    4:10   0.00   16.7    91    0.5    38     3.6   99999.0    0.00 
  84    4:20   0.00   15.7    91    0.8   251     3.0   99999.0    0.00 
  84    4:30   0.00   16.6    92    1.8   235     3.0   99999.0    0.00 
  84    4:40   0.00   16.9    92    0.3   235     1.8   99999.0    0.00 
  84    4:50   0.00   16.4    91    0.1   254     1.8   99999.0    0.00 
  84    5:00   0.00   16.3    91    0.2   292     1.2   99999.0    0.00 
  84    5:10   0.00   15.7    90    2.9   241     4.2   99999.0    0.00 
  84    5:20   0.00   16.2    90    1.8   236     3.6   99999.0    0.00 
  84    5:30   0.00   16.1    88    0.1   251     1.2   99999.0    0.00 
  84    5:40   0.00   15.8    90    0.0   242     1.2   99999.0    0.00 
  84    5:50   0.00   16.2    91    0.7   235     2.4   99999.0    0.00 
  84    6:00   0.00   17.2    89    0.5   169     1.8   99999.0    0.00 
  84    6:10   0.01   16.8    87    0.3   236     2.4   99999.0    0.00 
  84    6:20   0.01   15.8    87    0.2    34     1.8   99999.0    0.00 
  84    6:30   0.01   15.5    87    1.6   248     3.0   99999.0    0.00 
  84    6:40   0.04   15.9    89    1.3   246     2.4   99999.0    0.00 
  84    6:50   0.14   18.8    86    0.9   253     2.4   99999.0    0.00 
  84    7:00   0.18   22.0    80    0.4   251     1.8   99999.0    0.00 
  84    7:10   0.21   23.4    80    0.0   346     1.2   99999.0    0.00 
  84    7:20   0.24   24.2    79    0.2   340     2.4   99999.0    0.00 
  84    7:30   0.27   27.5    76    0.6    50     3.0   99999.0    0.00 
  84    7:40   0.31   33.1    68    0.1    48     1.2   99999.0    0.00 
  84    7:50   0.36   38.7    59    0.0     0     0.0   99999.0    0.00 
  84    8:00   0.42   44.4    48    0.1    32     1.8   99999.0    0.00 
  84    8:10   0.35   44.2    44    0.0     0     0.0   99999.0    0.00 
  84    8:20   0.32   42.1    49    0.0     0     0.0   99999.0    0.00 
  84    8:30   0.41   41.5    47    0.0   304     1.2   99999.0    0.00 
  84    8:40   0.51   46.4    33    0.8   128     2.4   99999.0    0.00 
  84    8:50   0.51   50.8    24    1.1    69     2.4   99999.0    0.00 
  84    9:00   0.55   50.4    27    3.1   134     4.8   99999.0    0.00 
  84    9:10   0.55   43.4    40    4.8   156     6.6   99999.0    0.00 
  84    9:20   0.66   44.1    34    3.9   153     5.4   99999.0    0.00 
  84    9:30   0.65   46.9    27    3.6   154     4.2   99999.0    0.00 
  84    9:40   0.62   48.0    27    3.7   158     5.4   99999.0    0.00 
  84    9:50   0.73   49.7    25    2.9   154     4.2   99999.0    0.00 
  84   10:00   0.76   48.9    24    5.8   160     9.0   99999.0    0.00 
  84   10:10   0.73   48.4    22    5.8   158     9.6   99999.0    0.00 
  84   10:20   0.72   48.4    22    6.3   160     9.6   99999.0    0.00 
  84   10:30   0.84   49.9    20    5.5   158     9.0   99999.0    0.00 
  84   10:40   0.78   50.5    19    6.6   155     9.6   99999.0    0.00 
  84   10:50   0.72   50.4    21    5.6   167     8.4   99999.0    0.00 
  84   11:00   0.91   51.3    22    6.1   152     9.6   99999.0    0.00 
  84   11:10   0.89   52.0    22    6.8   161    10.8   99999.0    0.00 
  84   11:20   0.91   51.9    24    6.6   158    11.3   99999.0    0.00 
  84   11:30   0.75   53.1    23    5.5   169    13.1   99999.0    0.00 
  84   11:40   0.68   51.9    23    6.4   171    11.3   99999.0    0.00 
  84   11:50   0.77   51.7    27    7.8   174    14.3   99999.0    0.00 
  84   12:00   0.84   52.7    27    6.1   188    10.8   99999.0    0.00 
  84   12:10   0.84   51.9    30    7.0   172    17.9   99999.0    0.00 
  84   12:20   0.76   52.6    30    5.8   198    11.3   99999.0    0.00 
  84   12:30   0.62   52.3    29    4.5   189     9.6   99999.0    0.00 
  84   12:40   0.71   53.9    26    4.5   247    10.8   99999.0    0.00 
  84   12:50   0.67   52.7    20    6.0   254    11.9   99999.0    0.00 
  84   13:00   0.54   52.6    18    6.1   245    13.1   99999.0    0.00 
  84   13:10   0.47   52.7    19    2.6   221     6.0   99999.0    0.00 
  84   13:20   0.45   52.8    18    5.6   246    10.8   99999.0    0.00 
  84   13:30   0.43   51.5    19    4.6   236     9.0   99999.0    0.00 
  84   13:40   0.55   52.6    19    3.7   249     6.6   99999.0    0.00 
  84   13:50   0.54   53.2    21    3.6   173     6.0   99999.0    0.00 
  84   14:00   0.47   52.7    21    4.6   221     7.8   99999.0    0.00 
  84   14:10   0.64   53.0    21    4.7   207     9.0   99999.0    0.00 
  84   14:20   0.41   52.6    21    4.3   219     9.0   99999.0    0.00 
  84   14:30   0.31   51.2    23    4.5   190    10.2   99999.0    0.00 
  84   14:40   0.26   49.9    24    4.7   180    10.2   99999.0    0.00 
  84   14:50   0.23   49.0    25    5.7   190    10.2   99999.0    0.00 
  84   15:00   0.26   48.8    25    6.0   186    10.2   99999.0    0.00 
  84   15:10   0.27   48.8    26    5.6   210     8.4   99999.0    0.00 
  84   15:20   0.33   49.1    27    4.7   195     8.4   99999.0    0.00 
  84   15:30   0.28   49.1    26    5.3   194     9.6   99999.0    0.00 
  84   15:40   0.40   49.4    27    4.6   220     9.0   99999.0    0.00 
  84   15:50   0.64   52.3    24    4.9   209    10.2   99999.0    0.00 
  84   16:00   0.58   51.8    24    6.2   183    11.3   99999.0    0.00 
  84   16:10   0.50   51.7    23    6.2   191    10.8   99999.0    0.00 
  84   16:20   0.44   51.9    23    5.7   191    11.9   99999.0    0.00 
  84   16:30   0.40   51.7    24    5.1   179     9.6   99999.0    0.00 
  84   16:40   0.37   53.2    23    3.9   219     7.2   99999.0    0.00 
  84   16:50   0.33   53.5    23    4.1   218     7.2   99999.0    0.00 
  84   17:00   0.15   51.6    24    4.5   215     7.8   99999.0    0.00 
  84   17:10   0.03   47.9    28    3.8   218     7.2   99999.0    0.00 
  84   17:20   0.05   46.0    32    3.4   225     5.4   99999.0    0.00 
  84   17:30   0.06   44.9    34    3.9   228     8.4   99999.0    0.00 
  84   17:40   0.04   45.6    32    4.0   218     8.4   99999.0    0.00 
  84   17:50   0.01   44.9    33    4.3   272    10.2   99999.0    0.00 
  84   18:00   0.01   43.9    35    3.6   226     6.0   99999.0    0.00 
  84   18:10   0.01   43.1    37    2.1   262     4.2   99999.0    0.00 
  84   18:20   0.00   42.2    42    1.8   299     5.4   99999.0    0.00 
  84   18:30   0.00   39.7    51    2.2   262     4.2   99999.0    0.00 
  84   18:40   0.00   38.9    50    4.7   330     7.2   99999.0    0.00 
  84   18:50   0.00   40.6    48    5.6   331     9.0   99999.0    0.00 
  84   19:00   0.00   40.5    51    8.0   337    12.5   99999.0    0.00 
  84   19:10   0.00   40.3    53    8.4   326    13.1   99999.0    0.00 
  84   19:20   0.00   40.1    55    7.6   320    10.8   99999.0    0.00 
  84   19:30   0.00   39.7    57    8.4   318    13.7   99999.0    0.00 
  84   19:40   0.00   39.3    58    5.1   315     8.4   99999.0    0.00 
  84   19:50   0.00   39.1    59    7.8   327    11.3   99999.0    0.00 
  84   20:00   0.00   38.9    60    8.4   334    12.5   99999.0    0.00 
  84   20:10   0.00   38.9    64    7.8   273    20.9   99999.0    0.00 
  84   20:20   0.00   35.3    83    5.4   273    17.9   99999.0    0.00 
  84   20:30   0.00   34.1    88    5.0   186    11.9   99999.0    0.00 
  84   20:40   0.00   34.1    88    6.0   166     9.6   99999.0    0.00 
  84   20:50   0.00   34.2    87    5.4   211     9.6   99999.0    0.00 
  84   21:00   0.00   34.5    85    6.4   240    13.1   99999.0    0.00 
  84   21:10   0.00   33.5    90    6.1   241    17.9   99999.0    0.00 
  84   21:20   0.00   32.7    94    1.0   278     7.8   99999.0    0.00 
  84   21:30   0.00   32.3    95    0.0     0     0.0   99999.0    0.00 
  84   21:40   0.00   32.2    95    0.0     0     0.0   99999.0    0.00 
  84   21:50   0.00   32.0    95    0.0     0     0.0   99999.0    0.00 
  84   22:00   0.00   31.7    95    0.0     0     0.0   99999.0    0.00 
  84   22:10   0.00   31.4    95    0.0     0     0.0   99999.0    0.00 
  84   22:20   0.00   31.2    95    0.0     0     0.0   99999.0    0.00 
  84   22:30   0.00   31.1    95    0.0     0     0.0   99999.0    0.00 
  84   22:40   0.00   31.1    95    0.0     0     0.0   99999.0    0.00 
  84   22:50   0.00   31.3    94    0.0     0     0.0   99999.0    0.00 
  84   23:00   0.00   31.4    91    0.0     0     0.0   99999.0    0.00 
  84   23:10   0.00   31.3    90    0.0     0     0.0   99999.0    0.00 
  84   23:20   0.00   31.0    91    0.0     0     0.0   99999.0    0.00 
  84   23:30   0.00   30.9    93    0.0     0     0.0   99999.0    0.00 
  84   23:40   0.00   30.9    92    0.0     0     0.0   99999.0    0.00 
  84   23:50   0.00   30.7    93    0.0     0     0.0   99999.0    0.00 
  85    0:00   0.00   30.2    95    0.0     0     0.0   99999.0    0.00 
  85    0:10   0.00   29.9    95    0.0     0     0.0   99999.0    0.00 
  85    0:20   0.00   29.6    95    0.0     0     0.0   99999.0    0.00 
  85    0:30   0.00   29.3    95    0.0     0     0.0   99999.0    0.00 
  85    0:40   0.00   29.1    95    0.0     0     0.0   99999.0    0.00 
  85    0:50   0.00   29.1    94    0.0     0     0.0   99999.0    0.02 
  85    1:00   0.00   28.9    94    0.0     0     0.0   99999.0    0.04 
  85    1:10   0.00   28.9    94    0.0     0     0.0   99999.0    0.03 
  85    1:20   0.00   28.9    94    0.0     0     0.0   99999.0    0.05 

Return to Los Posos, Valles Caldera graphs page.


Western Regional Climate Center,wrcc@dri.edu